createdAt,value
2018-11-02T00:00:25.262Z,6.90
2018-11-02T00:01:25.202Z,7.70
2018-11-02T00:02:25.226Z,7.60
2018-11-02T00:03:25.251Z,7.20
2018-11-02T00:04:25.280Z,6.50
2018-11-02T00:05:25.306Z,6.20
2018-11-02T00:06:25.514Z,5.90
2018-11-02T00:07:25.363Z,5.30
2018-11-02T00:08:25.389Z,5.30
2018-11-02T00:09:25.420Z,5.80
2018-11-02T00:10:25.446Z,4.10
2018-11-02T00:11:25.475Z,4.50
2018-11-02T00:12:25.564Z,5.70
2018-11-02T00:13:25.533Z,8.00
2018-11-02T00:14:25.557Z,7.30
2018-11-02T00:15:25.585Z,8.50
2018-11-02T00:16:25.612Z,7.20
2018-11-02T00:17:25.643Z,6.40
2018-11-02T00:18:25.668Z,7.50
2018-11-02T00:19:25.698Z,6.90
2018-11-02T00:20:25.725Z,9.50
2018-11-02T00:21:25.953Z,8.90
2018-11-02T00:22:25.784Z,9.50
2018-11-02T00:23:25.811Z,9.30
2018-11-02T00:24:25.836Z,8.80
2018-11-02T00:25:25.866Z,7.90
2018-11-02T00:26:25.895Z,6.40
2018-11-02T00:27:25.919Z,5.90
2018-11-02T00:28:25.946Z,7.10
2018-11-02T00:29:25.973Z,7.20
2018-11-02T00:30:26.002Z,5.80
2018-11-02T00:31:26.029Z,6.10
2018-11-02T00:32:26.057Z,6.40
2018-11-02T00:33:26.085Z,7.50
2018-11-02T00:34:26.114Z,7.50
2018-11-02T00:35:26.141Z,7.80
2018-11-02T00:36:26.169Z,7.00
2018-11-02T00:37:26.198Z,5.70
2018-11-02T00:38:26.225Z,5.50
2018-11-02T00:39:26.501Z,6.10
2018-11-02T00:40:26.279Z,5.80
2018-11-02T00:41:26.308Z,5.00
2018-11-02T00:42:26.335Z,5.30
2018-11-02T00:43:26.363Z,4.80
2018-11-02T00:44:26.390Z,4.50
2018-11-02T00:45:26.418Z,4.10
2018-11-02T00:46:26.445Z,4.20
2018-11-02T00:47:26.474Z,4.50
2018-11-02T00:48:26.502Z,3.70
2018-11-02T00:49:26.579Z,3.90
2018-11-02T00:50:26.557Z,3.90
2018-11-02T00:51:26.593Z,3.50
2018-11-02T00:52:26.612Z,3.40
2018-11-02T00:53:26.641Z,4.00
2018-11-02T00:54:26.667Z,3.30
2018-11-02T00:55:26.707Z,3.30
2018-11-02T00:56:26.721Z,4.60
2018-11-02T00:57:27.141Z,4.80
2018-11-02T00:58:26.778Z,5.00
2018-11-02T00:59:26.806Z,4.90
2018-11-02T01:00:26.832Z,4.50
2018-11-02T01:01:26.867Z,4.30
2018-11-02T01:02:26.890Z,4.70
2018-11-02T01:03:26.915Z,5.30
2018-11-02T01:04:26.941Z,4.40
2018-11-02T01:05:26.971Z,2.90
2018-11-02T01:06:26.998Z,3.90
2018-11-02T01:07:27.027Z,4.50
2018-11-02T01:08:27.056Z,3.80
2018-11-02T01:09:27.080Z,3.80
2018-11-02T01:10:27.107Z,4.40
2018-11-02T01:11:27.136Z,3.90
2018-11-02T01:12:27.161Z,4.10
2018-11-02T01:13:27.190Z,4.00
2018-11-02T01:14:27.218Z,4.90
2018-11-02T01:15:27.746Z,5.00
2018-11-02T01:16:27.284Z,5.20
2018-11-02T01:17:27.301Z,4.40
2018-11-02T01:18:27.345Z,4.40
2018-11-02T01:19:27.355Z,5.30
2018-11-02T01:20:27.382Z,5.20
2018-11-02T01:21:27.411Z,4.50
2018-11-02T01:22:27.440Z,4.30
2018-11-02T01:23:27.465Z,5.00
2018-11-02T01:24:27.491Z,5.20
2018-11-02T01:25:27.520Z,5.70
2018-11-02T01:26:27.547Z,5.10
2018-11-02T01:27:27.574Z,5.10
2018-11-02T01:28:27.601Z,4.40
2018-11-02T01:29:27.629Z,4.80
2018-11-02T01:30:27.656Z,5.10
2018-11-02T01:31:27.685Z,5.20
2018-11-02T01:32:27.710Z,5.00
2018-11-02T01:33:27.737Z,4.90
2018-11-02T01:34:27.766Z,4.80
2018-11-02T01:35:27.794Z,4.80
2018-11-02T01:36:27.820Z,4.60
2018-11-02T01:37:27.847Z,4.80
2018-11-02T01:38:27.876Z,4.50
2018-11-02T01:39:27.903Z,4.80
2018-11-02T01:40:27.929Z,4.90
2018-11-02T01:41:27.958Z,5.10
2018-11-02T01:42:27.985Z,4.80
2018-11-02T01:43:28.014Z,4.90
2018-11-02T01:44:28.038Z,5.20
2018-11-02T01:45:28.067Z,5.60
2018-11-02T01:46:28.095Z,5.90
2018-11-02T01:47:28.122Z,5.50
2018-11-02T01:48:28.148Z,5.20
2018-11-02T01:49:28.178Z,6.10
2018-11-02T01:50:28.204Z,5.80
2018-11-02T01:51:28.232Z,5.60
2018-11-02T01:52:28.260Z,5.10
2018-11-02T01:53:28.287Z,4.80
2018-11-02T01:54:28.313Z,5.10
2018-11-02T01:55:28.341Z,4.90
2018-11-02T01:56:28.367Z,3.70
2018-11-02T01:57:28.394Z,4.60
2018-11-02T01:58:28.422Z,3.60
2018-11-02T01:59:28.450Z,4.00
2018-11-02T02:00:28.476Z,3.80
2018-11-02T02:01:28.503Z,4.00
2018-11-02T02:02:28.535Z,4.90
2018-11-02T02:03:28.559Z,4.70
2018-11-02T02:04:28.586Z,4.90
2018-11-02T02:05:28.621Z,4.30
2018-11-02T02:06:28.641Z,5.20
2018-11-02T02:07:28.668Z,5.00
2018-11-02T02:08:28.693Z,4.20
2018-11-02T02:09:28.741Z,4.10
2018-11-02T02:10:28.748Z,4.10
2018-11-02T02:11:28.821Z,3.30
2018-11-02T02:12:28.801Z,4.40
2018-11-02T02:13:28.830Z,3.00
2018-11-02T02:14:28.861Z,3.80
2018-11-02T02:15:28.921Z,3.40
2018-11-02T02:16:28.911Z,2.80
2018-11-02T02:17:28.937Z,6.50
2018-11-02T02:18:28.965Z,7.50
2018-11-02T02:19:28.993Z,5.10
2018-11-02T02:20:29.029Z,5.90
2018-11-02T02:21:29.047Z,4.50
2018-11-02T02:22:29.077Z,4.30
2018-11-02T02:23:29.102Z,4.90
2018-11-02T02:24:29.131Z,5.20
2018-11-02T02:25:29.174Z,5.20
2018-11-02T02:26:29.192Z,5.60
2018-11-02T02:27:29.209Z,6.30
2018-11-02T02:28:29.235Z,5.70
2018-11-02T02:29:29.263Z,6.70
2018-11-02T02:30:29.289Z,7.30
2018-11-02T02:31:29.320Z,7.70
2018-11-02T02:32:29.343Z,7.00
2018-11-02T02:33:29.370Z,6.70
2018-11-02T02:34:29.400Z,6.10
2018-11-02T02:35:29.424Z,7.50
2018-11-02T02:36:29.451Z,7.10
2018-11-02T02:37:29.478Z,6.50
2018-11-02T02:38:29.505Z,6.30
2018-11-02T02:39:29.533Z,6.70
2018-11-02T02:40:29.559Z,6.30
2018-11-02T02:41:29.585Z,10.20
2018-11-02T02:42:29.612Z,12.00
2018-11-02T02:43:29.640Z,6.60
2018-11-02T02:44:29.667Z,6.40
2018-11-02T02:45:29.693Z,6.10
2018-11-02T02:46:29.720Z,6.50
2018-11-02T02:47:29.746Z,8.50
2018-11-02T02:48:29.776Z,9.60
2018-11-02T02:49:29.801Z,9.20
2018-11-02T02:50:29.826Z,9.10
2018-11-02T02:51:29.856Z,8.40
2018-11-02T02:52:29.880Z,8.20
2018-11-02T02:53:29.907Z,5.50
2018-11-02T02:54:29.933Z,4.80
2018-11-02T02:55:29.960Z,6.30
2018-11-02T02:56:29.986Z,6.80
2018-11-02T02:57:30.014Z,6.20
2018-11-02T02:58:30.080Z,7.10
2018-11-02T02:59:30.069Z,6.70
2018-11-02T03:00:30.113Z,6.30
2018-11-02T03:01:30.122Z,6.40
2018-11-02T03:02:30.147Z,6.00
2018-11-02T03:03:30.182Z,6.50
2018-11-02T03:04:30.203Z,6.60
2018-11-02T03:05:30.228Z,6.20
2018-11-02T03:06:30.253Z,5.70
2018-11-02T03:07:30.281Z,5.70
2018-11-02T03:08:30.308Z,5.60
2018-11-02T03:09:30.338Z,5.60
2018-11-02T03:10:30.446Z,4.70
2018-11-02T03:11:30.388Z,5.60
2018-11-02T03:12:30.414Z,4.90
2018-11-02T03:13:30.442Z,4.90
2018-11-02T03:14:30.471Z,5.70
2018-11-02T03:15:30.494Z,4.90
2018-11-02T03:16:30.523Z,6.00
2018-11-02T03:17:30.549Z,5.60
2018-11-02T03:18:30.700Z,8.00
2018-11-02T03:19:30.602Z,7.40
2018-11-02T03:20:30.628Z,9.40
2018-11-02T03:21:30.655Z,8.30
2018-11-02T03:22:30.787Z,7.90
2018-11-02T03:23:30.708Z,8.20
2018-11-02T03:24:30.734Z,7.80
2018-11-02T03:25:30.761Z,7.20
2018-11-02T03:26:30.789Z,6.30
2018-11-02T03:27:30.816Z,7.00
2018-11-02T03:28:30.841Z,7.00
2018-11-02T03:29:30.868Z,7.20
2018-11-02T03:30:30.894Z,6.70
2018-11-02T03:31:30.923Z,6.80
2018-11-02T03:32:30.951Z,6.30
2018-11-02T03:33:30.973Z,6.30
2018-11-02T03:34:31.001Z,7.30
2018-11-02T03:35:31.029Z,7.00
2018-11-02T03:36:31.053Z,7.40
2018-11-02T03:37:31.099Z,6.80
2018-11-02T03:38:31.108Z,6.70
2018-11-02T03:39:31.133Z,6.60
2018-11-02T03:40:31.159Z,6.40
2018-11-02T03:41:31.186Z,5.90
2018-11-02T03:42:31.215Z,5.30
2018-11-02T03:43:31.241Z,5.70
2018-11-02T03:44:31.265Z,5.50
2018-11-02T03:45:31.298Z,5.70
2018-11-02T03:46:31.322Z,5.20
2018-11-02T03:47:31.349Z,5.30
2018-11-02T03:48:31.373Z,4.50
2018-11-02T03:49:31.475Z,3.80
2018-11-02T03:50:31.433Z,5.00
2018-11-02T03:51:31.451Z,5.80
2018-11-02T03:52:31.477Z,7.00
2018-11-02T03:53:31.505Z,9.20
2018-11-02T03:54:31.532Z,7.30
2018-11-02T03:55:31.559Z,10.40
2018-11-02T03:56:31.591Z,9.70
2018-11-02T03:57:31.611Z,11.00
2018-11-02T03:58:31.638Z,12.80
2018-11-02T03:59:31.664Z,13.00
2018-11-02T04:00:31.745Z,11.90
2018-11-02T04:01:31.721Z,9.10
2018-11-02T04:02:31.743Z,9.10
2018-11-02T04:03:31.793Z,8.20
2018-11-02T04:04:31.797Z,10.40
2018-11-02T04:05:31.822Z,10.20
2018-11-02T04:06:31.851Z,7.50
2018-11-02T04:07:31.877Z,6.60
2018-11-02T04:08:31.902Z,6.10
2018-11-02T04:09:31.938Z,5.40
2018-11-02T04:10:31.955Z,5.20
2018-11-02T04:11:31.982Z,6.40
2018-11-02T04:12:32.010Z,5.80
2018-11-02T04:13:32.044Z,5.50
2018-11-02T04:14:32.060Z,6.70
2018-11-02T04:15:32.087Z,5.50
2018-11-02T04:16:32.113Z,5.90
2018-11-02T04:17:32.139Z,6.10
2018-11-02T04:19:32.195Z,7.30
2018-11-02T04:20:32.290Z,7.20
2018-11-02T04:21:33.057Z,6.80
2018-11-02T04:22:32.276Z,6.10
2018-11-02T04:23:32.298Z,7.00
2018-11-02T04:24:32.323Z,5.90
2018-11-02T04:25:32.354Z,6.10
2018-11-02T04:26:32.378Z,5.80
2018-11-02T04:27:32.407Z,6.00
2018-11-02T04:28:32.429Z,5.50
2018-11-02T04:29:32.461Z,6.10
2018-11-02T04:30:32.482Z,6.70
2018-11-02T04:31:32.510Z,6.30
2018-11-02T04:32:32.536Z,6.10
2018-11-02T04:33:32.563Z,5.70
2018-11-02T04:34:32.589Z,6.10
2018-11-02T04:36:32.640Z,5.60
2018-11-02T04:37:32.667Z,6.00
2018-11-02T04:38:32.694Z,5.10
2018-11-02T04:39:32.719Z,5.50
2018-11-02T04:40:32.984Z,5.50
2018-11-02T04:41:32.771Z,5.60
2018-11-02T04:42:32.798Z,5.40
2018-11-02T04:43:32.828Z,5.20
2018-11-02T04:44:32.852Z,5.50
2018-11-02T04:45:32.894Z,6.10
2018-11-02T04:46:32.908Z,5.90
2018-11-02T04:47:32.931Z,6.20
2018-11-02T04:48:32.956Z,6.40
2018-11-02T04:49:32.982Z,6.90
2018-11-02T04:50:33.009Z,6.80
2018-11-02T04:51:33.035Z,6.70
2018-11-02T04:52:33.062Z,6.50
2018-11-02T04:53:33.089Z,6.60
2018-11-02T04:54:33.115Z,5.70
2018-11-02T04:55:33.141Z,6.70
2018-11-02T04:56:33.165Z,6.00
2018-11-02T04:57:33.193Z,6.20
2018-11-02T04:58:33.220Z,5.70
2018-11-02T04:59:33.245Z,6.00
2018-11-02T05:00:33.271Z,5.60
2018-11-02T05:01:33.298Z,5.60
2018-11-02T05:02:33.323Z,6.50
2018-11-02T05:03:33.350Z,6.10
2018-11-02T05:04:33.383Z,6.10
2018-11-02T05:05:33.401Z,6.30
2018-11-02T05:06:33.435Z,6.50
2018-11-02T05:07:33.454Z,6.10
2018-11-02T05:08:33.479Z,6.50
2018-11-02T05:09:33.549Z,7.20
2018-11-02T05:10:33.533Z,6.80
2018-11-02T05:11:33.656Z,7.10
2018-11-02T05:12:33.586Z,7.60
2018-11-02T05:13:33.613Z,8.40
2018-11-02T05:14:33.638Z,9.00
2018-11-02T05:15:33.664Z,8.00
2018-11-02T05:16:33.700Z,7.80
2018-11-02T05:17:33.717Z,7.20
2018-11-02T05:18:33.746Z,6.70
2018-11-02T05:19:33.784Z,7.20
2018-11-02T05:20:33.796Z,7.60
2018-11-02T05:21:33.825Z,7.90
2018-11-02T05:22:33.850Z,7.30
2018-11-02T05:23:33.876Z,7.90
2018-11-02T05:24:33.901Z,8.10
2018-11-02T05:25:33.930Z,8.10
2018-11-02T05:26:33.955Z,8.00
2018-11-02T05:27:33.981Z,7.80
2018-11-02T05:28:34.007Z,7.10
2018-11-02T05:29:34.037Z,7.00
2018-11-02T05:30:34.060Z,6.50
2018-11-02T05:31:34.087Z,7.00
2018-11-02T05:32:34.112Z,6.70
2018-11-02T05:33:34.140Z,6.90
2018-11-02T05:34:34.166Z,8.50
2018-11-02T05:35:34.192Z,8.70
2018-11-02T05:36:34.218Z,10.40
2018-11-02T05:37:34.246Z,11.10
2018-11-02T05:38:34.271Z,10.40
2018-11-02T05:39:34.379Z,11.50
2018-11-02T05:40:34.324Z,10.70
2018-11-02T05:41:34.351Z,10.30
2018-11-02T05:42:34.378Z,9.30
2018-11-02T05:43:34.404Z,10.50
2018-11-02T05:44:34.429Z,9.30
2018-11-02T05:45:34.456Z,10.40
2018-11-02T05:46:34.482Z,8.50
2018-11-02T05:47:34.511Z,7.50
2018-11-02T05:48:34.536Z,7.20
2018-11-02T05:49:34.562Z,8.00
2018-11-02T05:50:34.588Z,7.70
2018-11-02T05:51:34.614Z,8.50
2018-11-02T05:52:34.640Z,6.90
2018-11-02T05:53:34.667Z,8.50
2018-11-02T05:54:34.694Z,6.90
2018-11-02T05:55:34.720Z,7.70
2018-11-02T05:56:34.745Z,8.00
2018-11-02T05:57:34.798Z,7.30
2018-11-02T05:58:34.799Z,8.00
2018-11-02T05:59:34.825Z,7.60
2018-11-02T06:00:34.852Z,7.30
2018-11-02T06:01:35.003Z,8.00
2018-11-02T06:02:34.904Z,14.00
2018-11-02T06:03:34.930Z,8.50
2018-11-02T06:04:34.981Z,6.90
2018-11-02T06:05:34.984Z,8.00
2018-11-02T06:06:35.009Z,8.40
2018-11-02T06:07:35.131Z,7.70
2018-11-02T06:08:35.062Z,7.60
2018-11-02T06:09:35.089Z,8.10
2018-11-02T06:10:35.114Z,7.50
2018-11-02T06:11:35.142Z,8.50
2018-11-02T06:12:35.167Z,7.60
2018-11-02T06:13:35.198Z,7.30
2018-11-02T06:14:35.221Z,7.00
2018-11-02T06:15:35.247Z,6.80
2018-11-02T06:16:35.318Z,7.50
2018-11-02T06:17:35.297Z,7.30
2018-11-02T06:18:35.325Z,8.40
2018-11-02T06:19:35.354Z,8.60
2018-11-02T06:20:35.381Z,9.10
2018-11-02T06:21:35.405Z,8.10
2018-11-02T06:22:36.032Z,8.70
2018-11-02T06:23:35.457Z,8.80
2018-11-02T06:24:35.484Z,9.90
2018-11-02T06:25:35.511Z,9.00
2018-11-02T06:26:35.536Z,9.10
2018-11-02T06:27:35.563Z,8.40
2018-11-02T06:28:35.593Z,9.50
2018-11-02T06:29:35.616Z,8.90
2018-11-02T06:30:35.733Z,8.80
2018-11-02T06:31:35.686Z,8.70
2018-11-02T06:32:35.704Z,8.80
2018-11-02T06:33:35.722Z,8.70
2018-11-02T06:34:35.751Z,8.00
2018-11-02T06:35:37.178Z,8.10
2018-11-02T06:36:35.834Z,7.70
2018-11-02T06:37:35.827Z,7.50
2018-11-02T06:38:35.857Z,8.40
2018-11-02T06:39:35.880Z,8.40
2018-11-02T06:40:38.460Z,11.00
2018-11-02T06:41:35.953Z,11.60
2018-11-02T06:42:35.959Z,10.90
2018-11-02T06:43:35.984Z,11.30
2018-11-02T06:44:36.018Z,14.00
2018-11-02T06:45:36.036Z,14.70
2018-11-02T06:46:36.062Z,12.20
2018-11-02T06:47:36.090Z,10.60
2018-11-02T06:48:36.115Z,11.20
2018-11-02T06:49:36.141Z,11.80
2018-11-02T06:50:36.167Z,11.50
2018-11-02T06:51:36.194Z,11.70
2018-11-02T06:52:36.221Z,13.20
2018-11-02T06:53:36.247Z,13.60
2018-11-02T06:54:36.275Z,12.60
2018-11-02T06:55:36.300Z,11.80
2018-11-02T06:56:36.326Z,13.00
2018-11-02T06:57:36.355Z,10.90
2018-11-02T06:58:36.382Z,9.10
2018-11-02T06:59:36.608Z,7.80
2018-11-02T07:00:36.489Z,7.20
2018-11-02T07:01:36.460Z,7.30
2018-11-02T07:02:36.495Z,7.30
2018-11-02T07:03:36.566Z,7.80
2018-11-02T07:04:36.556Z,9.10
2018-11-02T07:05:36.641Z,11.10
2018-11-02T07:06:36.697Z,12.70
2018-11-02T07:07:36.754Z,9.80
2018-11-02T07:08:36.756Z,9.40
2018-11-02T07:09:36.704Z,9.20
2018-11-02T07:10:36.779Z,9.50
2018-11-02T07:11:36.757Z,8.70
2018-11-02T07:12:36.748Z,8.70
2018-11-02T07:13:36.775Z,8.60
2018-11-02T07:14:36.802Z,8.40
2018-11-02T07:15:36.830Z,8.80
2018-11-02T07:16:36.855Z,9.90
2018-11-02T07:17:36.884Z,9.30
2018-11-02T07:18:36.909Z,9.50
2018-11-02T07:19:36.936Z,9.10
2018-11-02T07:20:36.961Z,8.60
2018-11-02T07:21:36.988Z,8.00
2018-11-02T07:22:37.013Z,8.60
2018-11-02T07:23:37.040Z,8.80
2018-11-02T07:24:37.067Z,8.80
2018-11-02T07:25:37.093Z,7.60
2018-11-02T07:26:37.121Z,8.20
2018-11-02T07:27:37.148Z,7.70
2018-11-02T07:28:37.173Z,8.20
2018-11-02T07:29:37.203Z,8.50
2018-11-02T07:30:37.228Z,8.00
2018-11-02T07:31:37.253Z,10.00
2018-11-02T07:32:37.280Z,8.90
2018-11-02T07:33:37.306Z,8.60
2018-11-02T07:34:37.334Z,8.00
2018-11-02T07:35:37.361Z,8.20
2018-11-02T07:36:37.447Z,7.50
2018-11-02T07:37:37.427Z,9.00
2018-11-02T07:38:37.440Z,7.90
2018-11-02T07:39:37.467Z,8.20
2018-11-02T07:40:37.534Z,9.40
2018-11-02T07:41:37.526Z,8.70
2018-11-02T07:42:37.548Z,9.60
2018-11-02T07:43:37.576Z,9.70
2018-11-02T07:44:37.602Z,9.50
2018-11-02T07:45:37.629Z,9.10
2018-11-02T07:46:37.693Z,9.30
2018-11-02T07:47:37.750Z,9.80
2018-11-02T07:48:37.715Z,9.10
2018-11-02T07:49:37.819Z,9.00
2018-11-02T07:50:37.767Z,8.70
2018-11-02T07:51:37.795Z,8.50
2018-11-02T07:52:37.823Z,9.00
2018-11-02T07:53:37.854Z,7.10
2018-11-02T07:54:37.880Z,7.90
2018-11-02T07:55:37.936Z,7.20
2018-11-02T07:56:37.936Z,7.90
2018-11-02T07:57:37.967Z,7.10
2018-11-02T07:58:37.994Z,7.00
2018-11-02T07:59:38.025Z,6.40
2018-11-02T08:00:38.054Z,5.30
2018-11-02T08:01:38.104Z,4.80
2018-11-02T08:02:38.163Z,5.10
2018-11-02T08:03:38.142Z,5.00
2018-11-02T08:04:38.176Z,5.10
2018-11-02T08:05:38.206Z,6.50
2018-11-02T08:06:38.233Z,7.50
2018-11-02T08:07:38.263Z,6.70
2018-11-02T08:08:38.293Z,6.80
2018-11-02T08:09:38.324Z,6.50
2018-11-02T08:10:38.405Z,8.70
2018-11-02T08:11:38.460Z,9.60
2018-11-02T08:12:38.418Z,7.90
2018-11-02T08:13:38.451Z,7.80
2018-11-02T08:14:38.481Z,7.50
2018-11-02T08:15:38.513Z,7.30
2018-11-02T08:16:38.545Z,6.80
2018-11-02T08:17:38.642Z,7.10
2018-11-02T08:18:38.611Z,6.40
2018-11-02T08:19:38.642Z,6.70
2018-11-02T08:20:38.675Z,6.60
2018-11-02T08:21:38.708Z,7.00
2018-11-02T08:22:38.741Z,5.20
2018-11-02T08:23:38.777Z,5.10
2018-11-02T08:24:38.861Z,4.70
2018-11-02T08:25:38.840Z,5.10
2018-11-02T08:26:38.876Z,4.70
2018-11-02T08:27:38.941Z,4.90
2018-11-02T08:28:38.942Z,5.30
2018-11-02T08:29:38.976Z,5.10
2018-11-02T08:30:39.057Z,5.10
2018-11-02T08:31:39.047Z,5.00
2018-11-02T08:32:39.096Z,5.20
2018-11-02T08:33:39.115Z,4.80
2018-11-02T08:34:39.151Z,4.10
2018-11-02T08:35:39.217Z,4.10
2018-11-02T08:36:39.308Z,5.00
2018-11-02T08:37:39.258Z,4.20
2018-11-02T08:38:39.292Z,3.70
2018-11-02T08:39:39.327Z,4.30
2018-11-02T08:40:39.361Z,4.00
2018-11-02T08:41:39.399Z,4.00
2018-11-02T08:42:39.434Z,4.10
2018-11-02T08:43:39.470Z,4.10
2018-11-02T08:44:39.506Z,4.40
2018-11-02T08:45:39.544Z,4.70
2018-11-02T08:46:39.709Z,4.20
2018-11-02T08:47:39.629Z,4.10
2018-11-02T08:48:39.652Z,3.90
2018-11-02T08:49:39.691Z,3.80
2018-11-02T08:50:39.727Z,3.50
2018-11-02T08:51:39.764Z,3.00
2018-11-02T08:52:39.802Z,3.20
2018-11-02T08:53:39.842Z,2.70
2018-11-02T08:54:39.910Z,3.10
2018-11-02T08:55:39.914Z,2.60
2018-11-02T08:56:39.952Z,2.80
2018-11-02T08:57:40.147Z,3.40
2018-11-02T08:58:40.290Z,3.30
2018-11-02T08:59:40.457Z,3.50
2018-11-02T09:00:40.104Z,3.40
2018-11-02T09:01:40.141Z,3.40
2018-11-02T09:02:40.183Z,3.40
2018-11-02T09:03:40.221Z,3.80
2018-11-02T09:04:40.277Z,4.00
2018-11-02T09:05:40.296Z,4.00
2018-11-02T09:06:40.334Z,3.70
2018-11-02T09:07:40.369Z,4.00
2018-11-02T09:08:40.429Z,3.90
2018-11-02T09:09:40.463Z,4.20
2018-11-02T09:10:40.484Z,4.40
2018-11-02T09:11:40.522Z,5.00
2018-11-02T09:12:40.558Z,4.20
2018-11-02T09:13:40.597Z,4.70
2018-11-02T09:14:40.639Z,4.00
2018-11-02T09:15:40.676Z,4.00
2018-11-02T09:16:40.725Z,4.10
2018-11-02T09:17:40.776Z,3.80
2018-11-02T09:18:40.811Z,4.20
2018-11-02T09:19:40.850Z,3.60
2018-11-02T09:20:40.886Z,3.30
2018-11-02T09:21:40.924Z,3.30
2018-11-02T09:22:40.968Z,3.00
2018-11-02T09:23:41.003Z,3.50
2018-11-02T09:24:41.029Z,3.30
2018-11-02T09:25:41.070Z,3.00
2018-11-02T09:26:41.110Z,3.20
2018-11-02T09:27:41.203Z,2.40
2018-11-02T09:28:41.190Z,3.10
2018-11-02T09:29:41.231Z,3.10
2018-11-02T09:30:41.273Z,3.10
2018-11-02T09:31:41.315Z,3.00
2018-11-02T09:32:41.355Z,2.60
2018-11-02T09:33:41.394Z,2.90
2018-11-02T09:34:41.459Z,3.40
2018-11-02T09:35:41.477Z,2.90
2018-11-02T09:36:41.544Z,2.50
2018-11-02T09:37:41.561Z,2.60
2018-11-02T09:38:41.602Z,3.00
2018-11-02T09:39:41.644Z,2.80
2018-11-02T09:40:41.685Z,2.60
2018-11-02T09:41:44.351Z,3.00
2018-11-02T09:42:41.802Z,3.20
2018-11-02T09:43:41.812Z,3.20
2018-11-02T09:44:41.855Z,3.10
2018-11-02T09:45:41.899Z,3.10
2018-11-02T09:46:41.940Z,2.90
2018-11-02T09:47:41.983Z,3.40
2018-11-02T09:48:42.024Z,3.20
2018-11-02T09:49:42.067Z,2.90
2018-11-02T09:50:42.110Z,2.60
2018-11-02T09:51:42.328Z,2.80
2018-11-02T09:52:42.195Z,2.80
2018-11-02T09:53:42.240Z,2.50
2018-11-02T09:54:42.283Z,2.70
2018-11-02T09:55:42.327Z,2.90
2018-11-02T09:56:42.369Z,2.40
2018-11-02T09:57:42.526Z,2.70
2018-11-02T09:58:42.456Z,2.60
2018-11-02T09:59:42.499Z,2.60
2018-11-02T10:00:42.542Z,2.80
2018-11-02T10:01:42.586Z,2.50
2018-11-02T10:02:42.630Z,2.40
2018-11-02T10:03:42.674Z,2.60
2018-11-02T10:04:42.715Z,2.30
2018-11-02T10:05:42.761Z,2.20
2018-11-02T10:06:42.805Z,2.50
2018-11-02T10:07:42.846Z,2.10
2018-11-02T10:08:42.890Z,2.30
2018-11-02T10:09:42.934Z,2.00
2018-11-02T10:10:42.980Z,2.00
2018-11-02T10:11:43.023Z,1.90
2018-11-02T10:12:43.066Z,2.30
2018-11-02T10:13:43.112Z,1.80
2018-11-02T10:14:43.157Z,1.70
2018-11-02T10:15:43.199Z,1.70
2018-11-02T10:16:43.243Z,2.30
2018-11-02T10:17:43.289Z,1.60
2018-11-02T10:18:43.334Z,2.00
2018-11-02T10:19:43.378Z,1.60
2018-11-02T10:20:43.421Z,2.00
2018-11-02T10:21:43.469Z,1.40
2018-11-02T10:22:43.512Z,1.50
2018-11-02T10:23:43.600Z,1.60
2018-11-02T10:24:43.602Z,1.50
2018-11-02T10:25:43.648Z,1.40
2018-11-02T10:26:43.694Z,1.40
2018-11-02T10:27:43.737Z,1.30
2018-11-02T10:28:43.782Z,1.20
2018-11-02T10:29:43.827Z,1.30
2018-11-02T10:30:43.874Z,1.00
2018-11-02T10:31:43.919Z,1.30
2018-11-02T10:32:43.965Z,1.10
2018-11-02T10:33:44.011Z,1.10
2018-11-02T10:34:44.055Z,1.00
2018-11-02T10:35:44.120Z,1.00
2018-11-02T10:36:44.146Z,0.80
2018-11-02T10:37:44.195Z,0.90
2018-11-02T10:38:44.242Z,1.10
2018-11-02T10:39:44.461Z,1.00
2018-11-02T10:40:44.329Z,0.90
2018-11-02T10:41:44.377Z,0.80
2018-11-02T10:42:44.423Z,0.90
2018-11-02T10:43:44.471Z,0.80
2018-11-02T10:44:44.764Z,1.00
2018-11-02T10:45:44.563Z,0.90
2018-11-02T10:46:44.609Z,0.70
2018-11-02T10:47:44.987Z,0.80
2018-11-02T10:48:44.704Z,1.00
2018-11-02T10:49:44.749Z,0.80
2018-11-02T10:50:44.795Z,0.90
2018-11-02T10:51:44.843Z,1.00
2018-11-02T10:52:44.889Z,0.90
2018-11-02T10:53:44.937Z,0.90
2018-11-02T10:54:45.194Z,0.80
2018-11-02T10:55:45.032Z,0.90
2018-11-02T10:56:45.225Z,0.80
2018-11-02T10:57:45.183Z,0.90
2018-11-02T10:58:45.176Z,0.80
2018-11-02T10:59:45.221Z,1.10
2018-11-02T11:00:45.355Z,0.80
2018-11-02T11:01:45.314Z,0.90
2018-11-02T11:02:45.363Z,0.70
2018-11-02T11:03:45.429Z,0.90
2018-11-02T11:04:45.456Z,0.70
2018-11-02T11:05:45.502Z,0.80
2018-11-02T11:06:45.551Z,1.10
2018-11-02T11:07:45.596Z,0.90
2018-11-02T11:08:45.643Z,0.80
2018-11-02T11:09:45.690Z,0.80
2018-11-02T11:10:45.738Z,0.90
2018-11-02T11:11:45.894Z,1.00
2018-11-02T11:12:46.240Z,1.00
2018-11-02T11:13:46.289Z,1.00
2018-11-02T11:14:45.921Z,1.00
2018-11-02T11:15:45.991Z,1.00
2018-11-02T11:16:46.009Z,0.80
2018-11-02T11:17:46.055Z,1.10
2018-11-02T11:18:46.099Z,1.00
2018-11-02T11:19:46.144Z,1.00
2018-11-02T11:20:46.184Z,0.90
2018-11-02T11:21:46.229Z,1.10
2018-11-02T11:22:46.271Z,0.90
2018-11-02T11:23:46.315Z,0.90
2018-11-02T11:24:46.354Z,1.10
2018-11-02T11:25:46.397Z,1.00
2018-11-02T11:26:46.439Z,1.00
2018-11-02T11:27:46.481Z,1.20
2018-11-02T11:28:46.527Z,0.90
2018-11-02T11:29:46.564Z,1.00
2018-11-02T11:30:46.607Z,1.00
2018-11-02T11:31:46.650Z,1.00
2018-11-02T11:32:46.688Z,1.00
2018-11-02T11:33:46.730Z,1.30
2018-11-02T11:34:46.769Z,0.90
2018-11-02T11:35:46.811Z,1.00
2018-11-02T11:36:46.853Z,1.10
2018-11-02T11:37:46.897Z,1.10
2018-11-02T11:38:46.931Z,1.00
2018-11-02T11:40:47.012Z,0.90
2018-11-02T11:41:47.052Z,1.00
2018-11-02T11:42:47.100Z,1.00
2018-11-02T11:43:47.132Z,1.40
2018-11-02T11:44:47.195Z,0.90
2018-11-02T11:45:47.212Z,1.40
2018-11-02T11:46:47.250Z,1.30
2018-11-02T11:47:47.292Z,1.50
2018-11-02T11:48:47.509Z,1.30
2018-11-02T11:49:47.371Z,1.30
2018-11-02T11:50:47.416Z,1.30
2018-11-02T11:51:47.451Z,0.90
2018-11-02T11:52:47.491Z,1.40
2018-11-02T11:53:47.530Z,1.20
2018-11-02T11:54:47.571Z,1.10
2018-11-02T11:55:47.612Z,1.00
2018-11-02T11:56:47.650Z,1.10
2018-11-02T11:57:47.690Z,0.80
2018-11-02T11:58:47.729Z,1.00
2018-11-02T11:59:47.776Z,0.90
2018-11-02T12:00:47.809Z,0.90
2018-11-02T12:01:47.851Z,1.00
2018-11-02T12:02:48.418Z,1.10
2018-11-02T12:03:47.929Z,0.90
2018-11-02T12:04:48.019Z,0.80
2018-11-02T12:05:48.006Z,1.00
2018-11-02T12:06:48.046Z,1.10
2018-11-02T12:07:48.086Z,1.10
2018-11-02T12:08:48.123Z,0.80
2018-11-02T12:09:48.364Z,0.80
2018-11-02T12:10:48.203Z,0.90
2018-11-02T12:11:48.244Z,0.80
2018-11-02T12:12:48.280Z,1.00
2018-11-02T12:13:48.319Z,0.80
2018-11-02T12:14:48.358Z,0.80
2018-11-02T12:15:48.465Z,1.10
2018-11-02T12:16:48.437Z,0.80
2018-11-02T12:17:48.475Z,0.90
2018-11-02T12:18:48.515Z,0.90
2018-11-02T12:19:48.555Z,0.80
2018-11-02T12:20:48.593Z,1.10
2018-11-02T12:21:48.685Z,1.10
2018-11-02T12:22:48.669Z,0.90
2018-11-02T12:23:48.708Z,0.90
2018-11-02T12:24:48.745Z,0.70
2018-11-02T12:25:48.782Z,0.80
2018-11-02T12:26:48.821Z,0.80
2018-11-02T12:27:48.859Z,0.80
2018-11-02T12:28:48.980Z,0.90
2018-11-02T12:29:48.934Z,0.90
2018-11-02T12:30:48.976Z,0.80
2018-11-02T12:31:49.010Z,0.70
2018-11-02T12:32:49.047Z,0.70
2018-11-02T12:33:49.083Z,0.90
2018-11-02T12:34:49.120Z,1.00
2018-11-02T12:35:49.159Z,0.90
2018-11-02T12:36:49.231Z,0.80
2018-11-02T12:37:49.231Z,0.80
2018-11-02T12:38:49.268Z,0.90
2018-11-02T12:39:49.305Z,0.80
2018-11-02T12:40:49.353Z,0.70
2018-11-02T12:41:49.378Z,0.80
2018-11-02T12:42:49.468Z,0.70
2018-11-02T12:43:49.537Z,0.70
2018-11-02T12:44:49.486Z,0.80
2018-11-02T12:45:49.523Z,0.70
2018-11-02T12:46:49.560Z,0.90
2018-11-02T12:47:49.627Z,0.80
2018-11-02T12:48:49.854Z,0.80
2018-11-02T12:49:50.053Z,0.90
2018-11-02T12:50:49.705Z,1.00
2018-11-02T12:51:49.742Z,0.80
2018-11-02T12:52:49.777Z,1.10
2018-11-02T12:53:49.814Z,1.10
2018-11-02T12:54:49.851Z,0.80
2018-11-02T12:55:49.887Z,0.80
2018-11-02T12:56:49.921Z,1.00
2018-11-02T12:57:49.957Z,0.70
2018-11-02T12:58:49.993Z,0.80
2018-11-02T12:59:51.232Z,0.90
2018-11-02T13:00:50.064Z,0.60
2018-11-02T13:01:50.100Z,1.00
2018-11-02T13:02:50.137Z,0.70
2018-11-02T13:03:50.174Z,0.80
2018-11-02T13:04:50.207Z,0.90
2018-11-02T13:05:50.445Z,0.90
2018-11-02T13:06:50.278Z,0.90
2018-11-02T13:07:50.316Z,1.00
2018-11-02T13:08:50.352Z,0.70
2018-11-02T13:09:50.385Z,0.90
2018-11-02T13:10:50.420Z,1.00
2018-11-02T13:11:50.457Z,0.90
2018-11-02T13:12:50.490Z,0.80
2018-11-02T13:13:50.530Z,0.80
2018-11-02T13:14:50.562Z,0.80
2018-11-02T13:15:50.691Z,0.70
2018-11-02T13:16:50.632Z,0.90
2018-11-02T13:17:50.669Z,0.90
2018-11-02T13:18:50.791Z,0.90
2018-11-02T13:19:50.739Z,0.90
2018-11-02T13:20:50.774Z,0.90